sensor_id;sensor_type;location;lat;lon;timestamp;temperature;humidity
612;DHT22;293;53.888;11.464;2022-12-07T00:01:26;3.60;99.90
612;DHT22;293;53.888;11.464;2022-12-07T00:03:54;3.60;99.90
612;DHT22;293;53.888;11.464;2022-12-07T00:06:24;3.60;99.90
612;DHT22;293;53.888;11.464;2022-12-07T00:08:50;3.60;99.90
612;DHT22;293;53.888;11.464;2022-12-07T00:11:19;3.70;99.90
612;DHT22;293;53.888;11.464;2022-12-07T00:13:47;3.70;99.90
612;DHT22;293;53.888;11.464;2022-12-07T00:16:16;3.60;99.90
612;DHT22;293;53.888;11.464;2022-12-07T00:18:43;3.60;99.90
612;DHT22;293;53.888;11.464;2022-12-07T00:21:12;3.60;99.90
612;DHT22;293;53.888;11.464;2022-12-07T00:23:41;3.50;99.90
612;DHT22;293;53.888;11.464;2022-12-07T00:26:10;3.50;99.90
612;DHT22;293;53.888;11.464;2022-12-07T00:28:38;3.40;99.90
612;DHT22;293;53.888;11.464;2022-12-07T00:31:06;3.40;99.90
612;DHT22;293;53.888;11.464;2022-12-07T00:33:33;3.40;99.90
612;DHT22;293;53.888;11.464;2022-12-07T00:36:01;3.50;99.90
612;DHT22;293;53.888;11.464;2022-12-07T00:38:31;3.50;99.90
612;DHT22;293;53.888;11.464;2022-12-07T00:41:01;3.50;99.90
612;DHT22;293;53.888;11.464;2022-12-07T00:43:28;3.50;99.90
612;DHT22;293;53.888;11.464;2022-12-07T00:45:55;3.60;99.90
612;DHT22;293;53.888;11.464;2022-12-07T00:48:23;3.60;99.90
612;DHT22;293;53.888;11.464;2022-12-07T00:50:50;3.70;99.90
612;DHT22;293;53.888;11.464;2022-12-07T00:53:17;3.70;99.90
612;DHT22;293;53.888;11.464;2022-12-07T00:55:45;3.70;99.90
612;DHT22;293;53.888;11.464;2022-12-07T00:58:13;3.70;99.90
612;DHT22;293;53.888;11.464;2022-12-07T01:00:41;3.70;99.90
612;DHT22;293;53.888;11.464;2022-12-07T01:03:10;3.80;99.90
612;DHT22;293;53.888;11.464;2022-12-07T01:05:37;3.80;99.90
612;DHT22;293;53.888;11.464;2022-12-07T01:08:05;3.80;99.90
612;DHT22;293;53.888;11.464;2022-12-07T01:10:32;3.80;99.90
612;DHT22;293;53.888;11.464;2022-12-07T01:12:59;3.80;99.90
612;DHT22;293;53.888;11.464;2022-12-07T01:15:27;3.90;99.90
612;DHT22;293;53.888;11.464;2022-12-07T01:17:54;3.80;99.90
612;DHT22;293;53.888;11.464;2022-12-07T01:20:21;3.90;99.90
612;DHT22;293;53.888;11.464;2022-12-07T01:22:48;3.90;99.90
612;DHT22;293;53.888;11.464;2022-12-07T01:25:15;4.00;99.90
612;DHT22;293;53.888;11.464;2022-12-07T01:27:42;4.00;99.90
612;DHT22;293;53.888;11.464;2022-12-07T01:30:11;4.00;99.90
612;DHT22;293;53.888;11.464;2022-12-07T01:32:39;4.00;99.90
612;DHT22;293;53.888;11.464;2022-12-07T01:35:07;4.00;99.90
612;DHT22;293;53.888;11.464;2022-12-07T01:37:35;4.10;99.90
612;DHT22;293;53.888;11.464;2022-12-07T01:40:03;4.00;99.90
612;DHT22;293;53.888;11.464;2022-12-07T01:42:30;4.00;99.90
612;DHT22;293;53.888;11.464;2022-12-07T01:45:37;4.10;99.90
612;DHT22;293;53.888;11.464;2022-12-07T01:50:34;4.00;99.90
612;DHT22;293;53.888;11.464;2022-12-07T01:53:03;4.00;99.90
612;DHT22;293;53.888;11.464;2022-12-07T01:55:30;4.00;99.90
612;DHT22;293;53.888;11.464;2022-12-07T01:57:58;4.00;99.90
612;DHT22;293;53.888;11.464;2022-12-07T02:00:25;4.00;99.90
612;DHT22;293;53.888;11.464;2022-12-07T02:02:54;4.00;99.90
612;DHT22;293;53.888;11.464;2022-12-07T02:05:25;4.00;99.90
612;DHT22;293;53.888;11.464;2022-12-07T02:07:54;3.90;99.90
612;DHT22;293;53.888;11.464;2022-12-07T02:10:28;3.80;99.90
612;DHT22;293;53.888;11.464;2022-12-07T02:12:57;3.80;99.90
612;DHT22;293;53.888;11.464;2022-12-07T02:15:31;3.70;99.90
612;DHT22;293;53.888;11.464;2022-12-07T02:18:04;3.70;99.90
612;DHT22;293;53.888;11.464;2022-12-07T02:20:39;3.70;99.90
612;DHT22;293;53.888;11.464;2022-12-07T02:26:45;3.80;99.90
612;DHT22;293;53.888;11.464;2022-12-07T02:29:20;3.80;99.90
612;DHT22;293;53.888;11.464;2022-12-07T02:31:54;3.80;99.90
612;DHT22;293;53.888;11.464;2022-12-07T02:34:30;3.80;99.90
612;DHT22;293;53.888;11.464;2022-12-07T02:37:02;3.80;99.90
612;DHT22;293;53.888;11.464;2022-12-07T02:39:37;3.80;99.90
612;DHT22;293;53.888;11.464;2022-12-07T02:42:14;3.90;99.90
612;DHT22;293;53.888;11.464;2022-12-07T02:44:44;3.80;99.90
612;DHT22;293;53.888;11.464;2022-12-07T02:47:14;3.80;99.90
612;DHT22;293;53.888;11.464;2022-12-07T02:49:42;3.70;99.90
612;DHT22;293;53.888;11.464;2022-12-07T02:52:09;3.80;99.90
612;DHT22;293;53.888;11.464;2022-12-07T02:54:36;3.80;99.90
612;DHT22;293;53.888;11.464;2022-12-07T02:57:13;3.80;99.90
612;DHT22;293;53.888;11.464;2022-12-07T02:59:50;3.70;99.90
612;DHT22;293;53.888;11.464;2022-12-07T03:02:28;3.80;99.90
612;DHT22;293;53.888;11.464;2022-12-07T03:05:09;3.80;99.90
612;DHT22;293;53.888;11.464;2022-12-07T03:07:45;3.80;99.90
612;DHT22;293;53.888;11.464;2022-12-07T03:10:20;3.70;99.90
612;DHT22;293;53.888;11.464;2022-12-07T03:12:56;3.70;99.90
612;DHT22;293;53.888;11.464;2022-12-07T03:15:32;3.70;99.90
612;DHT22;293;53.888;11.464;2022-12-07T03:18:01;3.80;99.90
612;DHT22;293;53.888;11.464;2022-12-07T03:20:29;3.80;99.90
612;DHT22;293;53.888;11.464;2022-12-07T03:22:57;3.70;99.90
612;DHT22;293;53.888;11.464;2022-12-07T03:25:26;3.70;99.90
612;DHT22;293;53.888;11.464;2022-12-07T03:27:55;3.70;99.90
612;DHT22;293;53.888;11.464;2022-12-07T03:30:28;3.70;99.90
612;DHT22;293;53.888;11.464;2022-12-07T03:32:59;3.70;99.90
612;DHT22;293;53.888;11.464;2022-12-07T03:35:32;3.80;99.90
612;DHT22;293;53.888;11.464;2022-12-07T03:38:04;3.80;99.90
612;DHT22;293;53.888;11.464;2022-12-07T03:40:39;3.80;99.90
612;DHT22;293;53.888;11.464;2022-12-07T03:43:07;3.90;99.90
612;DHT22;293;53.888;11.464;2022-12-07T03:45:39;3.90;99.90
612;DHT22;293;53.888;11.464;2022-12-07T03:48:08;4.00;99.90
612;DHT22;293;53.888;11.464;2022-12-07T03:50:45;4.00;99.90
612;DHT22;293;53.888;11.464;2022-12-07T03:53:18;4.10;99.90
612;DHT22;293;53.888;11.464;2022-12-07T03:55:47;4.00;99.90
612;DHT22;293;53.888;11.464;2022-12-07T03:58:17;3.90;99.90
612;DHT22;293;53.888;11.464;2022-12-07T04:00:47;3.90;99.90
612;DHT22;293;53.888;11.464;2022-12-07T04:03:15;3.80;99.90
612;DHT22;293;53.888;11.464;2022-12-07T04:05:42;4.00;99.90
612;DHT22;293;53.888;11.464;2022-12-07T04:08:10;3.90;99.90
612;DHT22;293;53.888;11.464;2022-12-07T04:10:37;3.90;99.90
612;DHT22;293;53.888;11.464;2022-12-07T04:13:04;3.90;99.90
612;DHT22;293;53.888;11.464;2022-12-07T04:15:30;3.90;99.90
612;DHT22;293;53.888;11.464;2022-12-07T04:17:59;3.90;99.90
612;DHT22;293;53.888;11.464;2022-12-07T04:20:26;4.00;99.90
612;DHT22;293;53.888;11.464;2022-12-07T04:22:53;4.00;99.90
612;DHT22;293;53.888;11.464;2022-12-07T04:25:20;3.90;99.90
612;DHT22;293;53.888;11.464;2022-12-07T04:27:47;4.00;99.90
612;DHT22;293;53.888;11.464;2022-12-07T04:30:14;3.90;99.90
612;DHT22;293;53.888;11.464;2022-12-07T04:32:41;3.90;99.90
612;DHT22;293;53.888;11.464;2022-12-07T04:35:09;3.90;99.90
612;DHT22;293;53.888;11.464;2022-12-07T04:37:36;3.90;99.90
612;DHT22;293;53.888;11.464;2022-12-07T04:40:06;4.00;99.90
612;DHT22;293;53.888;11.464;2022-12-07T04:42:34;4.00;99.90
612;DHT22;293;53.888;11.464;2022-12-07T04:45:01;4.00;99.90
612;DHT22;293;53.888;11.464;2022-12-07T04:47:28;4.10;99.90
612;DHT22;293;53.888;11.464;2022-12-07T04:49:54;4.00;99.90
612;DHT22;293;53.888;11.464;2022-12-07T04:52:23;3.90;99.90
612;DHT22;293;53.888;11.464;2022-12-07T04:54:50;4.00;99.90
612;DHT22;293;53.888;11.464;2022-12-07T04:57:16;4.00;99.90
612;DHT22;293;53.888;11.464;2022-12-07T04:59:43;4.00;99.90
612;DHT22;293;53.888;11.464;2022-12-07T05:02:10;3.90;99.90
612;DHT22;293;53.888;11.464;2022-12-07T05:04:37;4.00;99.90
612;DHT22;293;53.888;11.464;2022-12-07T05:07:04;3.90;99.90
612;DHT22;293;53.888;11.464;2022-12-07T05:09:32;4.00;99.90
612;DHT22;293;53.888;11.464;2022-12-07T05:11:59;4.00;99.90
612;DHT22;293;53.888;11.464;2022-12-07T05:14:26;4.00;99.90
612;DHT22;293;53.888;11.464;2022-12-07T05:16:53;4.00;99.90
612;DHT22;293;53.888;11.464;2022-12-07T05:19:20;4.00;99.90
612;DHT22;293;53.888;11.464;2022-12-07T05:21:48;3.90;99.90
612;DHT22;293;53.888;11.464;2022-12-07T05:24:15;3.90;99.90
612;DHT22;293;53.888;11.464;2022-12-07T05:26:44;4.00;99.90
612;DHT22;293;53.888;11.464;2022-12-07T05:29:12;3.90;99.90
612;DHT22;293;53.888;11.464;2022-12-07T05:31:40;3.90;99.90
612;DHT22;293;53.888;11.464;2022-12-07T05:34:07;3.80;99.90
612;DHT22;293;53.888;11.464;2022-12-07T05:36:34;3.60;99.90
612;DHT22;293;53.888;11.464;2022-12-07T05:39:01;3.60;99.90
612;DHT22;293;53.888;11.464;2022-12-07T05:41:28;3.60;99.90
612;DHT22;293;53.888;11.464;2022-12-07T05:44:14;3.50;99.90
612;DHT22;293;53.888;11.464;2022-12-07T05:46:41;3.50;99.90
612;DHT22;293;53.888;11.464;2022-12-07T05:49:08;3.50;99.90
612;DHT22;293;53.888;11.464;2022-12-07T05:51:35;3.60;99.90
612;DHT22;293;53.888;11.464;2022-12-07T05:54:02;3.50;99.90
612;DHT22;293;53.888;11.464;2022-12-07T05:56:29;3.50;99.90
612;DHT22;293;53.888;11.464;2022-12-07T05:58:56;3.60;99.90
612;DHT22;293;53.888;11.464;2022-12-07T06:01:41;3.60;99.90
612;DHT22;293;53.888;11.464;2022-12-07T06:04:08;3.70;99.90
612;DHT22;293;53.888;11.464;2022-12-07T06:06:35;3.70;99.90
612;DHT22;293;53.888;11.464;2022-12-07T06:09:02;3.80;99.90
612;DHT22;293;53.888;11.464;2022-12-07T06:11:29;3.70;99.90
612;DHT22;293;53.888;11.464;2022-12-07T06:14:13;3.70;99.90
612;DHT22;293;53.888;11.464;2022-12-07T06:16:42;3.70;99.90
612;DHT22;293;53.888;11.464;2022-12-07T06:19:09;3.60;99.90
612;DHT22;293;53.888;11.464;2022-12-07T06:21:36;3.50;99.90
612;DHT22;293;53.888;11.464;2022-12-07T06:24:03;3.50;99.90
612;DHT22;293;53.888;11.464;2022-12-07T06:26:30;3.50;99.90
612;DHT22;293;53.888;11.464;2022-12-07T06:28:57;3.50;99.90
612;DHT22;293;53.888;11.464;2022-12-07T06:31:26;3.50;99.90
612;DHT22;293;53.888;11.464;2022-12-07T06:33:58;3.60;99.90
612;DHT22;293;53.888;11.464;2022-12-07T06:36:25;3.60;99.90
612;DHT22;293;53.888;11.464;2022-12-07T06:38:53;3.50;99.90
612;DHT22;293;53.888;11.464;2022-12-07T06:41:21;3.50;99.90
612;DHT22;293;53.888;11.464;2022-12-07T06:43:48;3.60;99.90
612;DHT22;293;53.888;11.464;2022-12-07T06:46:16;3.70;99.90
612;DHT22;293;53.888;11.464;2022-12-07T06:48:43;3.70;99.90
612;DHT22;293;53.888;11.464;2022-12-07T06:51:11;3.60;99.90
612;DHT22;293;53.888;11.464;2022-12-07T06:53:38;3.60;99.90
612;DHT22;293;53.888;11.464;2022-12-07T06:56:05;3.60;99.90
612;DHT22;293;53.888;11.464;2022-12-07T06:58:32;3.60;99.90
612;DHT22;293;53.888;11.464;2022-12-07T07:00:59;3.60;99.90
612;DHT22;293;53.888;11.464;2022-12-07T07:03:26;3.50;99.90
612;DHT22;293;53.888;11.464;2022-12-07T07:05:53;3.40;99.90
612;DHT22;293;53.888;11.464;2022-12-07T07:08:22;3.30;99.90
612;DHT22;293;53.888;11.464;2022-12-07T07:10:49;3.30;99.90
612;DHT22;293;53.888;11.464;2022-12-07T07:13:16;3.20;99.90
612;DHT22;293;53.888;11.464;2022-12-07T07:15:43;3.10;99.90
612;DHT22;293;53.888;11.464;2022-12-07T07:18:10;3.10;99.90
612;DHT22;293;53.888;11.464;2022-12-07T07:20:37;3.20;99.90
612;DHT22;293;53.888;11.464;2022-12-07T07:23:04;3.10;99.90
612;DHT22;293;53.888;11.464;2022-12-07T07:25:33;3.10;99.90
612;DHT22;293;53.888;11.464;2022-12-07T07:28:00;3.00;99.90
612;DHT22;293;53.888;11.464;2022-12-07T07:30:27;2.80;99.90
612;DHT22;293;53.888;11.464;2022-12-07T07:32:56;2.80;99.90
612;DHT22;293;53.888;11.464;2022-12-07T07:35:24;2.80;99.90
612;DHT22;293;53.888;11.464;2022-12-07T07:37:51;2.70;99.90
612;DHT22;293;53.888;11.464;2022-12-07T07:40:18;2.50;99.90
612;DHT22;293;53.888;11.464;2022-12-07T07:42:48;2.50;99.90
612;DHT22;293;53.888;11.464;2022-12-07T07:45:15;2.30;99.90
612;DHT22;293;53.888;11.464;2022-12-07T07:47:43;2.40;99.90
612;DHT22;293;53.888;11.464;2022-12-07T07:50:10;2.30;99.90
612;DHT22;293;53.888;11.464;2022-12-07T07:52:38;2.30;99.90
612;DHT22;293;53.888;11.464;2022-12-07T07:55:06;2.30;99.90
612;DHT22;293;53.888;11.464;2022-12-07T07:57:35;2.30;99.90
612;DHT22;293;53.888;11.464;2022-12-07T08:00:06;2.20;99.90
612;DHT22;293;53.888;11.464;2022-12-07T08:02:34;2.20;99.90
612;DHT22;293;53.888;11.464;2022-12-07T08:05:00;2.10;99.90
612;DHT22;293;53.888;11.464;2022-12-07T08:07:28;2.10;99.90
612;DHT22;293;53.888;11.464;2022-12-07T08:09:55;2.10;99.90
612;DHT22;293;53.888;11.464;2022-12-07T08:12:22;2.10;99.90
612;DHT22;293;53.888;11.464;2022-12-07T08:14:49;2.10;99.90
612;DHT22;293;53.888;11.464;2022-12-07T08:17:17;2.30;99.90
612;DHT22;293;53.888;11.464;2022-12-07T08:19:44;2.10;99.90
612;DHT22;293;53.888;11.464;2022-12-07T08:22:11;2.10;99.90
612;DHT22;293;53.888;11.464;2022-12-07T08:24:37;2.20;99.90
612;DHT22;293;53.888;11.464;2022-12-07T08:27:04;2.20;99.90
612;DHT22;293;53.888;11.464;2022-12-07T08:29:31;2.20;99.90
612;DHT22;293;53.888;11.464;2022-12-07T08:31:58;2.20;99.90
612;DHT22;293;53.888;11.464;2022-12-07T08:34:28;2.20;99.90
612;DHT22;293;53.888;11.464;2022-12-07T08:36:55;2.20;99.90
612;DHT22;293;53.888;11.464;2022-12-07T08:39:22;2.20;99.90
612;DHT22;293;53.888;11.464;2022-12-07T08:41:49;2.30;99.90
612;DHT22;293;53.888;11.464;2022-12-07T08:44:16;2.30;99.90
612;DHT22;293;53.888;11.464;2022-12-07T08:46:46;2.30;99.90
612;DHT22;293;53.888;11.464;2022-12-07T08:49:17;2.40;99.90
612;DHT22;293;53.888;11.464;2022-12-07T08:51:47;2.40;99.90
612;DHT22;293;53.888;11.464;2022-12-07T08:54:16;2.40;99.90
612;DHT22;293;53.888;11.464;2022-12-07T08:56:44;2.40;99.90
612;DHT22;293;53.888;11.464;2022-12-07T08:59:12;2.30;99.90
612;DHT22;293;53.888;11.464;2022-12-07T09:01:40;2.30;99.90
612;DHT22;293;53.888;11.464;2022-12-07T09:04:07;2.30;99.90
612;DHT22;293;53.888;11.464;2022-12-07T09:06:34;2.30;99.90
612;DHT22;293;53.888;11.464;2022-12-07T09:09:03;2.40;99.90
612;DHT22;293;53.888;11.464;2022-12-07T09:11:30;2.40;99.90
612;DHT22;293;53.888;11.464;2022-12-07T09:13:57;2.40;99.90
612;DHT22;293;53.888;11.464;2022-12-07T09:16:24;2.40;99.90
612;DHT22;293;53.888;11.464;2022-12-07T09:18:51;2.50;99.90
612;DHT22;293;53.888;11.464;2022-12-07T09:21:18;2.50;99.90
612;DHT22;293;53.888;11.464;2022-12-07T09:23:45;2.50;99.90
612;DHT22;293;53.888;11.464;2022-12-07T09:26:13;2.50;99.90
612;DHT22;293;53.888;11.464;2022-12-07T09:28:40;2.50;99.90
612;DHT22;293;53.888;11.464;2022-12-07T09:31:07;2.50;99.90
612;DHT22;293;53.888;11.464;2022-12-07T09:33:34;2.40;99.90
612;DHT22;293;53.888;11.464;2022-12-07T09:36:02;2.60;99.90
612;DHT22;293;53.888;11.464;2022-12-07T09:38:29;2.50;99.90
612;DHT22;293;53.888;11.464;2022-12-07T09:40:58;2.50;99.90
612;DHT22;293;53.888;11.464;2022-12-07T09:43:31;2.50;99.90
612;DHT22;293;53.888;11.464;2022-12-07T09:45:58;2.60;99.90
612;DHT22;293;53.888;11.464;2022-12-07T09:48:29;2.60;99.90
612;DHT22;293;53.888;11.464;2022-12-07T09:50:58;2.70;99.90
612;DHT22;293;53.888;11.464;2022-12-07T09:53:27;2.70;99.90
612;DHT22;293;53.888;11.464;2022-12-07T09:55:55;2.80;99.90
612;DHT22;293;53.888;11.464;2022-12-07T09:58:24;2.80;99.90
612;DHT22;293;53.888;11.464;2022-12-07T10:00:56;2.80;99.90
612;DHT22;293;53.888;11.464;2022-12-07T10:03:25;2.90;99.90
612;DHT22;293;53.888;11.464;2022-12-07T10:05:53;2.80;99.90
612;DHT22;293;53.888;11.464;2022-12-07T10:08:20;2.80;99.90
612;DHT22;293;53.888;11.464;2022-12-07T10:10:50;2.80;99.90
612;DHT22;293;53.888;11.464;2022-12-07T10:13:20;2.90;99.90
612;DHT22;293;53.888;11.464;2022-12-07T10:15:50;2.90;99.90
612;DHT22;293;53.888;11.464;2022-12-07T10:18:27;2.90;99.90
612;DHT22;293;53.888;11.464;2022-12-07T10:21:10;3.00;99.90
612;DHT22;293;53.888;11.464;2022-12-07T10:23:39;3.00;99.90
612;DHT22;293;53.888;11.464;2022-12-07T10:26:29;3.00;99.90
612;DHT22;293;53.888;11.464;2022-12-07T10:28:59;3.00;99.90
612;DHT22;293;53.888;11.464;2022-12-07T10:31:26;3.10;99.90
612;DHT22;293;53.888;11.464;2022-12-07T10:33:56;3.10;99.90
612;DHT22;293;53.888;11.464;2022-12-07T10:36:25;3.10;99.90
612;DHT22;293;53.888;11.464;2022-12-07T10:38:53;3.00;99.90
612;DHT22;293;53.888;11.464;2022-12-07T10:41:25;3.10;99.90
612;DHT22;293;53.888;11.464;2022-12-07T10:43:53;3.10;99.90
612;DHT22;293;53.888;11.464;2022-12-07T10:46:41;3.10;99.90
612;DHT22;293;53.888;11.464;2022-12-07T10:52:13;3.20;99.90
612;DHT22;293;53.888;11.464;2022-12-07T10:54:48;3.30;99.90
612;DHT22;293;53.888;11.464;2022-12-07T10:57:26;3.30;99.90
612;DHT22;293;53.888;11.464;2022-12-07T11:00:04;3.30;99.90
612;DHT22;293;53.888;11.464;2022-12-07T11:02:46;3.30;99.90
612;DHT22;293;53.888;11.464;2022-12-07T11:05:24;3.40;99.90
612;DHT22;293;53.888;11.464;2022-12-07T11:08:01;3.40;99.90
612;DHT22;293;53.888;11.464;2022-12-07T11:10:37;3.40;99.90
612;DHT22;293;53.888;11.464;2022-12-07T11:13:24;3.40;99.90
612;DHT22;293;53.888;11.464;2022-12-07T11:16:13;3.50;99.90
612;DHT22;293;53.888;11.464;2022-12-07T11:18:51;3.40;99.90
612;DHT22;293;53.888;11.464;2022-12-07T11:21:27;3.40;99.90
612;DHT22;293;53.888;11.464;2022-12-07T11:24:01;3.50;99.90
612;DHT22;293;53.888;11.464;2022-12-07T11:26:44;3.50;99.90
612;DHT22;293;53.888;11.464;2022-12-07T11:29:27;3.40;99.90
612;DHT22;293;53.888;11.464;2022-12-07T11:32:04;3.50;99.90
612;DHT22;293;53.888;11.464;2022-12-07T11:34:39;3.60;99.90
612;DHT22;293;53.888;11.464;2022-12-07T11:37:16;3.60;99.90
612;DHT22;293;53.888;11.464;2022-12-07T11:39:49;3.60;99.90
612;DHT22;293;53.888;11.464;2022-12-07T11:42:22;3.60;99.90
612;DHT22;293;53.888;11.464;2022-12-07T11:44:52;3.70;99.90
612;DHT22;293;53.888;11.464;2022-12-07T11:47:25;3.70;99.90
612;DHT22;293;53.888;11.464;2022-12-07T11:49:58;3.70;99.90
612;DHT22;293;53.888;11.464;2022-12-07T11:52:43;3.60;99.90
612;DHT22;293;53.888;11.464;2022-12-07T11:55:18;3.70;99.90
612;DHT22;293;53.888;11.464;2022-12-07T11:57:51;3.70;99.90
612;DHT22;293;53.888;11.464;2022-12-07T12:00:19;3.80;99.90
612;DHT22;293;53.888;11.464;2022-12-07T12:02:49;3.80;99.90
612;DHT22;293;53.888;11.464;2022-12-07T12:05:20;3.80;99.90
612;DHT22;293;53.888;11.464;2022-12-07T12:07:53;3.80;99.90
612;DHT22;293;53.888;11.464;2022-12-07T12:10:27;3.80;99.90
612;DHT22;293;53.888;11.464;2022-12-07T12:16:13;3.80;99.90
612;DHT22;293;53.888;11.464;2022-12-07T12:19:03;3.80;99.90
612;DHT22;293;53.888;11.464;2022-12-07T12:21:35;3.80;99.90
612;DHT22;293;53.888;11.464;2022-12-07T12:24:10;3.90;99.90
612;DHT22;293;53.888;11.464;2022-12-07T12:26:38;3.80;99.90
612;DHT22;293;53.888;11.464;2022-12-07T12:29:06;3.80;99.90
612;DHT22;293;53.888;11.464;2022-12-07T12:31:47;3.80;99.90
612;DHT22;293;53.888;11.464;2022-12-07T12:34:37;3.80;99.90
612;DHT22;293;53.888;11.464;2022-12-07T12:43:52;3.70;99.90
612;DHT22;293;53.888;11.464;2022-12-07T12:46:50;3.70;99.90
612;DHT22;293;53.888;11.464;2022-12-07T12:49:35;3.70;99.90
612;DHT22;293;53.888;11.464;2022-12-07T12:55:20;3.70;99.90
612;DHT22;293;53.888;11.464;2022-12-07T13:03:56;3.70;99.90
612;DHT22;293;53.888;11.464;2022-12-07T13:06:35;3.70;99.90
612;DHT22;293;53.888;11.464;2022-12-07T13:09:03;3.80;99.90
612;DHT22;293;53.888;11.464;2022-12-07T13:11:33;3.80;99.90
612;DHT22;293;53.888;11.464;2022-12-07T13:20:43;3.80;99.90
612;DHT22;293;53.888;11.464;2022-12-07T13:23:10;3.70;99.90
612;DHT22;293;53.888;11.464;2022-12-07T13:25:46;3.70;99.90
612;DHT22;293;53.888;11.464;2022-12-07T13:28:17;3.70;99.90
612;DHT22;293;53.888;11.464;2022-12-07T13:31:00;3.60;99.90
612;DHT22;293;53.888;11.464;2022-12-07T13:33:29;3.70;99.90
612;DHT22;293;53.888;11.464;2022-12-07T13:35:58;3.60;99.90
612;DHT22;293;53.888;11.464;2022-12-07T13:38:29;3.60;99.90
612;DHT22;293;53.888;11.464;2022-12-07T13:41:13;3.60;99.90
612;DHT22;293;53.888;11.464;2022-12-07T13:43:59;3.70;99.90
612;DHT22;293;53.888;11.464;2022-12-07T13:46:33;3.60;99.90
612;DHT22;293;53.888;11.464;2022-12-07T13:49:02;3.70;99.90
612;DHT22;293;53.888;11.464;2022-12-07T13:51:34;3.60;99.90
612;DHT22;293;53.888;11.464;2022-12-07T13:54:09;3.50;99.90
612;DHT22;293;53.888;11.464;2022-12-07T13:56:37;3.60;99.90
612;DHT22;293;53.888;11.464;2022-12-07T13:59:07;3.50;99.90
612;DHT22;293;53.888;11.464;2022-12-07T14:01:37;3.60;99.90
612;DHT22;293;53.888;11.464;2022-12-07T14:04:18;3.70;99.90
612;DHT22;293;53.888;11.464;2022-12-07T14:06:51;3.70;99.90
612;DHT22;293;53.888;11.464;2022-12-07T14:09:19;3.60;99.90
612;DHT22;293;53.888;11.464;2022-12-07T14:11:50;3.60;99.90
612;DHT22;293;53.888;11.464;2022-12-07T14:14:19;3.60;99.90
612;DHT22;293;53.888;11.464;2022-12-07T14:16:57;3.60;99.90
612;DHT22;293;53.888;11.464;2022-12-07T14:19:46;3.60;99.90
612;DHT22;293;53.888;11.464;2022-12-07T14:22:37;3.60;99.90
612;DHT22;293;53.888;11.464;2022-12-07T14:25:21;3.60;99.90
612;DHT22;293;53.888;11.464;2022-12-07T14:27:54;3.50;99.90
612;DHT22;293;53.888;11.464;2022-12-07T14:30:24;3.50;99.90
612;DHT22;293;53.888;11.464;2022-12-07T14:32:54;3.40;99.90
612;DHT22;293;53.888;11.464;2022-12-07T14:35:22;3.40;99.90
612;DHT22;293;53.888;11.464;2022-12-07T14:37:51;3.40;99.90
612;DHT22;293;53.888;11.464;2022-12-07T14:40:20;3.30;99.90
612;DHT22;293;53.888;11.464;2022-12-07T14:42:50;3.30;99.90
612;DHT22;293;53.888;11.464;2022-12-07T14:45:20;3.40;99.90
612;DHT22;293;53.888;11.464;2022-12-07T14:47:48;3.30;99.90
612;DHT22;293;53.888;11.464;2022-12-07T14:50:16;3.20;99.90
612;DHT22;293;53.888;11.464;2022-12-07T14:52:46;3.20;99.90
612;DHT22;293;53.888;11.464;2022-12-07T14:55:20;3.00;99.90
612;DHT22;293;53.888;11.464;2022-12-07T14:57:49;3.00;99.90
612;DHT22;293;53.888;11.464;2022-12-07T15:00:17;2.90;99.90
612;DHT22;293;53.888;11.464;2022-12-07T15:02:45;2.90;99.90
612;DHT22;293;53.888;11.464;2022-12-07T15:05:12;2.80;99.90
612;DHT22;293;53.888;11.464;2022-12-07T15:07:40;2.80;99.90
612;DHT22;293;53.888;11.464;2022-12-07T15:10:14;2.80;99.90
612;DHT22;293;53.888;11.464;2022-12-07T15:12:42;2.90;99.90
612;DHT22;293;53.888;11.464;2022-12-07T15:15:09;2.80;99.90
612;DHT22;293;53.888;11.464;2022-12-07T15:17:36;2.90;99.90
612;DHT22;293;53.888;11.464;2022-12-07T15:20:04;3.00;99.90
612;DHT22;293;53.888;11.464;2022-12-07T15:22:31;2.90;99.90
612;DHT22;293;53.888;11.464;2022-12-07T15:24:58;2.80;99.90
612;DHT22;293;53.888;11.464;2022-12-07T15:27:25;2.80;99.90
612;DHT22;293;53.888;11.464;2022-12-07T15:29:54;2.90;99.90
612;DHT22;293;53.888;11.464;2022-12-07T15:32:21;2.90;99.90
612;DHT22;293;53.888;11.464;2022-12-07T15:34:48;3.00;99.90
612;DHT22;293;53.888;11.464;2022-12-07T15:37:15;3.00;99.90
612;DHT22;293;53.888;11.464;2022-12-07T15:39:42;3.00;99.90
612;DHT22;293;53.888;11.464;2022-12-07T15:42:09;3.00;99.90
612;DHT22;293;53.888;11.464;2022-12-07T15:44:36;2.90;99.90
612;DHT22;293;53.888;11.464;2022-12-07T15:47:22;2.90;99.90
612;DHT22;293;53.888;11.464;2022-12-07T15:49:48;2.90;99.90
612;DHT22;293;53.888;11.464;2022-12-07T15:52:15;2.90;99.90
612;DHT22;293;53.888;11.464;2022-12-07T15:54:42;2.90;99.90
612;DHT22;293;53.888;11.464;2022-12-07T15:57:09;2.80;99.90
612;DHT22;293;53.888;11.464;2022-12-07T15:59:36;2.80;99.90
612;DHT22;293;53.888;11.464;2022-12-07T16:02:03;2.90;99.90
612;DHT22;293;53.888;11.464;2022-12-07T16:04:31;2.80;99.90
612;DHT22;293;53.888;11.464;2022-12-07T16:06:58;2.80;99.90
612;DHT22;293;53.888;11.464;2022-12-07T16:09:25;2.70;99.90
612;DHT22;293;53.888;11.464;2022-12-07T16:11:53;2.70;99.90
612;DHT22;293;53.888;11.464;2022-12-07T16:14:20;2.70;99.90
612;DHT22;293;53.888;11.464;2022-12-07T16:16:47;2.70;99.90
612;DHT22;293;53.888;11.464;2022-12-07T16:19:15;2.70;99.90
612;DHT22;293;53.888;11.464;2022-12-07T16:21:43;2.70;99.90
612;DHT22;293;53.888;11.464;2022-12-07T16:24:10;2.70;99.90
612;DHT22;293;53.888;11.464;2022-12-07T16:26:38;2.70;99.90
612;DHT22;293;53.888;11.464;2022-12-07T16:29:05;2.70;99.90
612;DHT22;293;53.888;11.464;2022-12-07T16:31:32;2.70;99.90
612;DHT22;293;53.888;11.464;2022-12-07T16:33:59;2.80;99.90
612;DHT22;293;53.888;11.464;2022-12-07T16:36:26;2.80;99.90
612;DHT22;293;53.888;11.464;2022-12-07T16:38:54;2.70;99.90
612;DHT22;293;53.888;11.464;2022-12-07T16:41:21;2.70;99.90
612;DHT22;293;53.888;11.464;2022-12-07T16:43:49;2.70;99.90
612;DHT22;293;53.888;11.464;2022-12-07T16:46:16;2.70;99.90
612;DHT22;293;53.888;11.464;2022-12-07T16:48:43;2.70;99.90
612;DHT22;293;53.888;11.464;2022-12-07T16:51:12;2.70;99.90
612;DHT22;293;53.888;11.464;2022-12-07T16:53:41;2.70;99.90
612;DHT22;293;53.888;11.464;2022-12-07T16:56:11;2.70;99.90
612;DHT22;293;53.888;11.464;2022-12-07T16:58:40;2.70;99.90
612;DHT22;293;53.888;11.464;2022-12-07T17:01:11;2.50;99.90
612;DHT22;293;53.888;11.464;2022-12-07T17:03:38;2.60;99.90
612;DHT22;293;53.888;11.464;2022-12-07T17:06:12;2.50;99.90
612;DHT22;293;53.888;11.464;2022-12-07T17:08:40;2.40;99.90
612;DHT22;293;53.888;11.464;2022-12-07T17:11:13;2.40;99.90
612;DHT22;293;53.888;11.464;2022-12-07T17:13:40;2.40;99.90
612;DHT22;293;53.888;11.464;2022-12-07T17:16:24;2.40;99.90
612;DHT22;293;53.888;11.464;2022-12-07T17:18:51;2.40;99.90
612;DHT22;293;53.888;11.464;2022-12-07T17:21:18;2.40;99.90
612;DHT22;293;53.888;11.464;2022-12-07T17:23:46;2.30;99.90
612;DHT22;293;53.888;11.464;2022-12-07T17:26:15;2.30;99.90
612;DHT22;293;53.888;11.464;2022-12-07T17:28:43;2.30;99.90